Pope Air Force Base
KPOB : now visible

Airfield :











YOU CAN JOIN US ON...

 
LOGIN :

Register | Disclaimer

   EN    FR    IT 

 









Legend :    VFR   Marginal VFR   IFR   Intensive IFR   Very Intensive IFR
Visi :
Ceiling :
>= 8 km
>= 3000ft
5 to 8 km
1000 to 3000 ft
1500m to 5 km
500 to 1000 ft
800 to 1500m
200 to 500 ft
< 800m
< 200 ft
Symbols :   Thunderstorms  Fog  Heavy snow  Heavy precipitations  Wind > 20 kt






- Airport Elevation : 217 ft


KPOB - Pope Air Force Base

CURRENT METAR :
  • 210855Z AUTO 21003KT 10SM OVC033 23/22 A3004 RMK AO2 SLP173 60000 T02340218 57004 $

EXPIRED METARs :
  • 210755Z AUTO 21003KT 10SM BKN036 23/22 A3005 RMK AO2 SLP176 T02330215 $
  • 210655Z AUTO 00000KT 10SM BKN130 BKN160 23/22 A3005 RMK AO2 DZE02DZB17E22RAB22E33DZB33E37 SLP176 P0000 T02340216 $
  • 210617Z AUTO 00000KT 10SM -DZ BKN130 BKN150 23/22 A3006 RMK AO2 DZE02DZB17 SLP180 $
  • 210602Z AUTO 00000KT 10SM FEW042 SCT130 SCT150 BKN200 23/21 A3006 RMK AO2 DZE02 SLP180 $
  • 210555Z AUTO 00000KT 10SM -DZ FEW042 SCT095 BKN120 23/22 A3006 RMK AO2 RAB14E48DZB48 SLP180 P0001 60013 T02320216 10264 20232 53003 $
  • 210514Z AUTO 27005KT 10SM -RA BKN036 OVC044 24/22 A3007 RMK AO2 RAB14 SLP183 $
  • 210448Z AUTO 25005KT 10SM OVC036 24/22 A3007 RMK AO2 RAB36E48 SLP183 $

Expired Forecast.
KZDC FIR / North America



MET'MAP, your aeronautical weather chart ! - Copyright ORBIFLY December 2007 - Disclaimer

ORBIFLY MET'MAP TEAM :

Programming & Development : Alexandra Zaïnal
Original concept : Baudouin d'Aumeries
Technical & hardware support : Manuel Goepfert
Assistance : Marc-Olivier Méhu




SOURCES & CREDITS :

   NOAA       Earth
Advisory